createdAt,value
2022-10-12T00:10:07.415Z,55.50
2022-10-12T00:20:14.808Z,51.40
2022-10-12T00:30:20.700Z,68.50
2022-10-12T00:40:27.815Z,68.60
2022-10-12T00:50:35.295Z,51.60
2022-10-12T01:00:44.233Z,52.20
2022-10-12T01:10:51.334Z,51.30
2022-10-12T01:21:08.314Z,49.00
2022-10-12T01:31:13.223Z,57.10
2022-10-12T01:41:18.300Z,57.10
2022-10-12T01:51:27.054Z,42.90
2022-10-12T02:01:43.678Z,42.90
2022-10-12T02:11:52.807Z,42.20
2022-10-12T02:22:05.619Z,40.70
2022-10-12T02:32:15.821Z,49.10
2022-10-12T02:42:30.266Z,46.50
2022-10-12T02:52:42.277Z,48.20
2022-10-12T03:02:49.388Z,40.20
2022-10-12T03:12:56.759Z,38.90
2022-10-12T03:23:04.405Z,34.10
2022-10-12T03:33:12.263Z,39.30
2022-10-12T03:43:19.378Z,41.10
2022-10-12T03:53:26.502Z,50.90
2022-10-12T04:03:33.641Z,52.20
2022-10-12T04:13:40.757Z,41.60
2022-10-12T04:23:47.944Z,36.00
2022-10-12T04:33:55.455Z,46.30
2022-10-12T04:44:02.579Z,65.20
2022-10-12T04:54:10.775Z,71.60
2022-10-12T05:04:17.895Z,79.00
2022-10-12T05:14:25.075Z,74.60
2022-10-12T05:24:32.156Z,60.90
2022-10-12T05:34:39.976Z,55.40
2022-10-12T05:44:47.053Z,57.90
2022-10-12T05:54:53.406Z,64.10
2022-10-12T06:05:01.147Z,70.80
2022-10-12T06:15:09.965Z,96.40
2022-10-12T06:25:17.272Z,79.10
2022-10-12T06:35:24.405Z,53.90
2022-10-12T06:45:32.350Z,40.90
2022-10-12T06:55:42.139Z,43.20
2022-10-12T07:15:54.865Z,64.40
2022-10-12T08:32:48.891Z,33.60
2022-10-12T08:43:06.062Z,32.90
2022-10-12T08:53:15.688Z,16.50
2022-10-12T09:03:34.056Z,21.30
2022-10-12T09:13:41.540Z,19.80
2022-10-12T09:23:50.200Z,15.90
2022-10-12T09:33:58.033Z,7.50
2022-10-12T09:44:07.611Z,12.90
2022-10-12T10:14:32.708Z,8.00
2022-10-12T10:34:44.500Z,5.20
2022-10-12T10:44:53.509Z,4.40
2022-10-12T10:55:20.295Z,5.20
2022-10-12T11:05:26.821Z,4.30
2022-10-12T11:15:36.407Z,4.30
2022-10-12T11:25:49.138Z,5.80
2022-10-12T11:35:58.397Z,6.60
2022-10-12T11:46:07.658Z,5.10
2022-10-12T11:56:12.870Z,4.20
2022-10-12T12:07:03.012Z,3.60
2022-10-12T12:17:15.422Z,3.60
2022-10-12T12:27:24.729Z,4.00
2022-10-12T12:47:46.592Z,4.00
2022-10-12T12:58:11.309Z,4.70
2022-10-12T13:08:20.250Z,4.20
2022-10-12T13:18:47.963Z,3.90
2022-10-12T13:28:58.569Z,3.20
2022-10-12T13:39:08.888Z,3.70
2022-10-12T13:49:14.310Z,3.10
2022-10-12T13:59:22.669Z,2.90
2022-10-12T14:19:43.424Z,2.90
2022-10-12T14:29:50.595Z,3.20
2022-10-12T14:40:02.577Z,3.10
2022-10-12T14:50:10.590Z,2.70
2022-10-12T15:00:20.054Z,4.20
2022-10-12T15:10:26.413Z,4.50
2022-10-12T15:31:04.180Z,7.20
2022-10-12T15:41:14.224Z,4.70
2022-10-12T15:51:25.187Z,6.90
2022-10-12T16:01:34.106Z,6.90
2022-10-12T16:11:41.739Z,7.10
2022-10-12T16:21:49.055Z,17.80
2022-10-12T16:31:56.099Z,15.90
2022-10-12T16:42:00.970Z,25.50
2022-10-12T16:52:06.643Z,65.50
2022-10-12T17:02:13.675Z,57.80
2022-10-12T17:12:21.190Z,21.50
2022-10-12T17:22:29.101Z,22.30
2022-10-12T17:32:38.097Z,21.70
2022-10-12T17:42:45.830Z,25.80
2022-10-12T17:52:52.924Z,29.00
2022-10-12T18:03:00.168Z,37.80
2022-10-12T18:13:07.739Z,30.80
2022-10-12T18:23:15.129Z,26.20
2022-10-12T18:33:22.910Z,48.30
2022-10-12T18:43:30.151Z,32.30
2022-10-12T18:53:37.726Z,45.40
2022-10-12T19:03:45.142Z,45.90
2022-10-12T19:13:52.650Z,36.80
2022-10-12T19:24:03.023Z,37.60
2022-10-12T19:34:13.591Z,33.80
2022-10-12T19:44:21.743Z,43.00
2022-10-12T19:54:33.010Z,44.90
2022-10-12T20:04:44.042Z,42.90
2022-10-12T20:14:51.284Z,43.40
2022-10-12T20:24:58.398Z,39.10
2022-10-12T20:35:06.359Z,38.60
2022-10-12T20:45:14.589Z,43.60
2022-10-12T20:55:18.184Z,64.30
2022-10-12T21:05:25.703Z,94.20
2022-10-12T21:15:32.747Z,89.80
2022-10-12T21:25:37.783Z,86.20
2022-10-12T21:35:43.703Z,86.80
2022-10-12T21:45:50.974Z,117.30
2022-10-12T21:55:58.290Z,101.30
2022-10-12T22:06:04.760Z,111.80
2022-10-12T22:16:12.645Z,111.90
2022-10-12T22:26:22.695Z,87.70
2022-10-12T22:36:29.884Z,80.20
2022-10-12T22:46:37.303Z,66.90
2022-10-12T22:56:44.554Z,61.60
2022-10-12T23:06:52.105Z,73.60
2022-10-12T23:16:59.205Z,71.60
2022-10-12T23:27:06.315Z,57.30
2022-10-12T23:37:13.437Z,59.80
2022-10-12T23:47:20.618Z,59.40
2022-10-12T23:57:46.063Z,60.10
